sensor_id;sensor_type;location;lat;lon;timestamp;pressure;altitude;pressure_sealevel;temperature;humidity
58967;BME280;44744;51.894;5.080;2023-01-19T00:00:21;100172.31;;;1.91;86.77
58967;BME280;44744;51.894;5.080;2023-01-19T00:01:25;100165.35;;;1.91;86.89
58967;BME280;44744;51.894;5.080;2023-01-19T00:05:42;100159.64;;;1.90;86.75
58967;BME280;44744;51.894;5.080;2023-01-19T00:06:43;100156.67;;;1.89;86.97
58967;BME280;44744;51.894;5.080;2023-01-19T00:07:43;100153.71;;;1.89;86.91
58967;BME280;44744;51.894;5.080;2023-01-19T00:08:44;100153.34;;;1.90;86.90
58967;BME280;44744;51.894;5.080;2023-01-19T00:09:45;100148.84;;;1.89;86.88
58967;BME280;44744;51.894;5.080;2023-01-19T00:10:47;100150.04;;;1.90;86.99
58967;BME280;44744;51.894;5.080;2023-01-19T00:11:47;100149.29;;;1.92;86.95
58967;BME280;44744;51.894;5.080;2023-01-19T00:12:48;100146.85;;;1.92;87.03
58967;BME280;44744;51.894;5.080;2023-01-19T00:13:48;100146.50;;;1.92;86.97
58967;BME280;44744;51.894;5.080;2023-01-19T00:14:48;100147.02;;;1.92;86.78
58967;BME280;44744;51.894;5.080;2023-01-19T00:15:49;100151.01;;;1.92;86.99
58967;BME280;44744;51.894;5.080;2023-01-19T00:16:49;100153.23;;;1.94;86.89
58967;BME280;44744;51.894;5.080;2023-01-19T00:17:49;100159.64;;;1.95;87.00
58967;BME280;44744;51.894;5.080;2023-01-19T00:18:50;100164.01;;;1.95;86.91
58967;BME280;44744;51.894;5.080;2023-01-19T00:19:51;100172.55;;;1.95;87.08
58967;BME280;44744;51.894;5.080;2023-01-19T00:20:51;100178.48;;;1.95;87.08
58967;BME280;44744;51.894;5.080;2023-01-19T00:21:52;100176.89;;;1.96;87.07
58967;BME280;44744;51.894;5.080;2023-01-19T00:22:52;100177.58;;;1.96;87.11
58967;BME280;44744;51.894;5.080;2023-01-19T00:23:52;100176.70;;;1.96;87.14
58967;BME280;44744;51.894;5.080;2023-01-19T00:24:52;100175.31;;;1.96;87.07
58967;BME280;44744;51.894;5.080;2023-01-19T00:25:53;100178.81;;;1.96;87.05
58967;BME280;44744;51.894;5.080;2023-01-19T00:26:53;100171.48;;;1.95;87.15
58967;BME280;44744;51.894;5.080;2023-01-19T00:27:53;100171.30;;;1.96;87.04
58967;BME280;44744;51.894;5.080;2023-01-19T00:28:53;100174.80;;;1.96;87.22
58967;BME280;44744;51.894;5.080;2023-01-19T00:29:54;100172.36;;;1.96;87.17
58967;BME280;44744;51.894;5.080;2023-01-19T00:30:54;100171.30;;;1.96;87.20
58967;BME280;44744;51.894;5.080;2023-01-19T00:31:54;100170.93;;;1.97;87.26
58967;BME280;44744;51.894;5.080;2023-01-19T00:32:55;100171.78;;;1.97;87.30
58967;BME280;44744;51.894;5.080;2023-01-19T00:33:55;100167.61;;;1.97;87.22
58967;BME280;44744;51.894;5.080;2023-01-19T00:34:55;100167.80;;;1.97;87.41
58967;BME280;44744;51.894;5.080;2023-01-19T00:35:55;100167.24;;;1.97;87.35
58967;BME280;44744;51.894;5.080;2023-01-19T00:36:56;100166.20;;;1.97;87.52
58967;BME280;44744;51.894;5.080;2023-01-19T00:37:59;100168.30;;;1.97;87.37
58967;BME280;44744;51.894;5.080;2023-01-19T00:38:59;100168.67;;;1.97;87.42
58967;BME280;44744;51.894;5.080;2023-01-19T00:40:00;100167.77;;;1.97;87.49
58967;BME280;44744;51.894;5.080;2023-01-19T00:41:00;100168.29;;;1.98;87.44
58967;BME280;44744;51.894;5.080;2023-01-19T00:42:00;100169.86;;;1.98;87.46
58967;BME280;44744;51.894;5.080;2023-01-19T00:43:01;100169.48;;;1.98;87.52
58967;BME280;44744;51.894;5.080;2023-01-19T00:44:01;100168.41;;;1.99;87.56
58967;BME280;44744;51.894;5.080;2023-01-19T00:45:01;100168.23;;;2.00;87.51
58967;BME280;44744;51.894;5.080;2023-01-19T00:46:01;100163.48;;;2.00;87.66
58967;BME280;44744;51.894;5.080;2023-01-19T00:47:02;100163.30;;;2.01;87.60
58967;BME280;44744;51.894;5.080;2023-01-19T00:48:02;100166.39;;;2.03;87.66
58967;BME280;44744;51.894;5.080;2023-01-19T00:49:03;100165.63;;;2.04;87.62
58967;BME280;44744;51.894;5.080;2023-01-19T00:50:04;100166.34;;;2.04;87.88
58967;BME280;44744;51.894;5.080;2023-01-19T00:51:04;100166.16;;;2.04;87.91
58967;BME280;44744;51.894;5.080;2023-01-19T00:52:05;100165.13;;;2.04;87.84
58967;BME280;44744;51.894;5.080;2023-01-19T00:53:05;100168.05;;;2.05;88.01
58967;BME280;44744;51.894;5.080;2023-01-19T00:54:05;100166.30;;;2.05;87.88
58967;BME280;44744;51.894;5.080;2023-01-19T00:55:07;100169.83;;;2.04;87.90
58967;BME280;44744;51.894;5.080;2023-01-19T00:56:08;100172.23;;;2.05;87.88
58967;BME280;44744;51.894;5.080;2023-01-19T00:57:08;100173.83;;;2.05;87.97
58967;BME280;44744;51.894;5.080;2023-01-19T00:58:08;100175.57;;;2.04;87.84
58967;BME280;44744;51.894;5.080;2023-01-19T00:59:09;100174.89;;;2.04;87.81
58967;BME280;44744;51.894;5.080;2023-01-19T01:00:15;100173.13;;;2.04;87.92
58967;BME280;44744;51.894;5.080;2023-01-19T01:01:15;100177.16;;;2.04;87.87
58967;BME280;44744;51.894;5.080;2023-01-19T01:02:16;100176.63;;;2.04;87.95
58967;BME280;44744;51.894;5.080;2023-01-19T01:03:16;100176.66;;;2.03;87.82
58967;BME280;44744;51.894;5.080;2023-01-19T01:04:16;100177.03;;;2.02;87.87
58967;BME280;44744;51.894;5.080;2023-01-19T01:05:17;100180.37;;;2.02;87.84
58967;BME280;44744;51.894;5.080;2023-01-19T01:06:19;100179.14;;;2.02;87.82
58967;BME280;44744;51.894;5.080;2023-01-19T01:07:23;100182.67;;;2.01;87.66
58967;BME280;44744;51.894;5.080;2023-01-19T01:21:55;100175.63;;;1.85;88.28
58967;BME280;44744;51.894;5.080;2023-01-19T01:22:56;100178.40;;;1.86;88.23
58967;BME280;44744;51.894;5.080;2023-01-19T01:23:59;100176.47;;;1.86;88.28
58967;BME280;44744;51.894;5.080;2023-01-19T01:25:00;100176.96;;;1.87;88.21
58967;BME280;44744;51.894;5.080;2023-01-19T01:26:00;100179.01;;;1.89;88.43
58967;BME280;44744;51.894;5.080;2023-01-19T01:27:00;100180.92;;;1.89;88.33
58967;BME280;44744;51.894;5.080;2023-01-19T01:28:01;100184.74;;;1.90;88.43
58967;BME280;44744;51.894;5.080;2023-01-19T01:29:01;100184.20;;;1.90;88.50
58967;BME280;44744;51.894;5.080;2023-01-19T01:30:02;100182.30;;;1.90;88.48
58967;BME280;44744;51.894;5.080;2023-01-19T01:31:02;100182.77;;;1.91;88.39
58967;BME280;44744;51.894;5.080;2023-01-19T01:32:02;100186.08;;;1.92;88.53
58967;BME280;44744;51.894;5.080;2023-01-19T01:33:03;100180.99;;;1.93;88.63
58967;BME280;44744;51.894;5.080;2023-01-19T01:34:03;100181.19;;;1.92;88.63
58967;BME280;44744;51.894;5.080;2023-01-19T01:41:36;100189.50;;;1.88;89.51
58967;BME280;44744;51.894;5.080;2023-01-19T01:42:36;100190.57;;;1.87;89.66
58967;BME280;44744;51.894;5.080;2023-01-19T01:44:52;100195.14;;;1.86;89.78
58967;BME280;44744;51.894;5.080;2023-01-19T01:45:53;100191.00;;;1.84;89.66
58967;BME280;44744;51.894;5.080;2023-01-19T01:46:53;100196.10;;;1.83;89.68
58967;BME280;44744;51.894;5.080;2023-01-19T01:48:02;100197.35;;;1.82;89.74
58967;BME280;44744;51.894;5.080;2023-01-19T01:49:14;100198.77;;;1.81;89.59
58967;BME280;44744;51.894;5.080;2023-01-19T01:50:22;100200.50;;;1.82;89.73
58967;BME280;44744;51.894;5.080;2023-01-19T01:51:28;100201.72;;;1.81;89.73
58967;BME280;44744;51.894;5.080;2023-01-19T01:52:31;100200.13;;;1.82;89.82
58967;BME280;44744;51.894;5.080;2023-01-19T01:53:34;100203.84;;;1.81;89.87
58967;BME280;44744;51.894;5.080;2023-01-19T01:54:35;100209.23;;;1.81;90.01
58967;BME280;44744;51.894;5.080;2023-01-19T01:55:47;100210.13;;;1.80;89.98
58967;BME280;44744;51.894;5.080;2023-01-19T01:56:51;100208.26;;;1.78;90.01
58967;BME280;44744;51.894;5.080;2023-01-19T01:57:55;100210.02;;;1.78;90.01
58967;BME280;44744;51.894;5.080;2023-01-19T01:58:57;100214.22;;;1.77;90.01
58967;BME280;44744;51.894;5.080;2023-01-19T01:59:58;100212.99;;;1.78;90.22
58967;BME280;44744;51.894;5.080;2023-01-19T02:00:58;100212.56;;;1.74;90.16
58967;BME280;44744;51.894;5.080;2023-01-19T02:02:05;100212.75;;;1.74;90.26
58967;BME280;44744;51.894;5.080;2023-01-19T02:03:06;100212.92;;;1.74;90.20
58967;BME280;44744;51.894;5.080;2023-01-19T02:04:06;100214.48;;;1.74;90.20
58967;BME280;44744;51.894;5.080;2023-01-19T02:05:14;100216.39;;;1.75;90.39
58967;BME280;44744;51.894;5.080;2023-01-19T02:06:16;100221.11;;;1.75;90.22
58967;BME280;44744;51.894;5.080;2023-01-19T02:07:28;100223.73;;;1.75;90.53
58967;BME280;44744;51.894;5.080;2023-01-19T02:08:34;100225.48;;;1.74;90.27
58967;BME280;44744;51.894;5.080;2023-01-19T02:09:36;100225.98;;;1.74;90.46
58967;BME280;44744;51.894;5.080;2023-01-19T02:10:37;100232.46;;;1.73;90.58
58967;BME280;44744;51.894;5.080;2023-01-19T02:11:38;100231.59;;;1.73;90.51
58967;BME280;44744;51.894;5.080;2023-01-19T02:12:38;100239.27;;;1.73;90.50
58967;BME280;44744;51.894;5.080;2023-01-19T02:13:40;100233.94;;;1.70;90.40
58967;BME280;44744;51.894;5.080;2023-01-19T02:14:41;100238.02;;;1.68;90.40
58967;BME280;44744;51.894;5.080;2023-01-19T02:15:42;100241.41;;;1.65;90.38
58967;BME280;44744;51.894;5.080;2023-01-19T02:16:42;100239.88;;;1.64;90.50
58967;BME280;44744;51.894;5.080;2023-01-19T02:17:42;100240.98;;;1.61;90.36
58967;BME280;44744;51.894;5.080;2023-01-19T02:18:43;100240.83;;;1.61;90.32
58967;BME280;44744;51.894;5.080;2023-01-19T02:19:43;100242.31;;;1.57;90.31
58967;BME280;44744;51.894;5.080;2023-01-19T02:20:51;100246.36;;;1.56;90.37
58967;BME280;44744;51.894;5.080;2023-01-19T02:22:03;100249.39;;;1.54;90.47
58967;BME280;44744;51.894;5.080;2023-01-19T02:23:09;100249.62;;;1.52;90.48
58967;BME280;44744;51.894;5.080;2023-01-19T02:24:12;100254.35;;;1.51;90.41
58967;BME280;44744;51.894;5.080;2023-01-19T02:25:13;100256.97;;;1.50;90.48
58967;BME280;44744;51.894;5.080;2023-01-19T02:26:38;100254.70;;;1.50;90.58
58967;BME280;44744;51.894;5.080;2023-01-19T02:27:36;100260.30;;;1.50;90.56
58967;BME280;44744;51.894;5.080;2023-01-19T02:28:42;100259.99;;;1.48;90.68
58967;BME280;44744;51.894;5.080;2023-01-19T02:29:43;100259.67;;;1.47;90.66
58967;BME280;44744;51.894;5.080;2023-01-19T02:30:43;100260.91;;;1.47;90.78
58967;BME280;44744;51.894;5.080;2023-01-19T02:31:44;100261.41;;;1.47;90.74
58967;BME280;44744;51.894;5.080;2023-01-19T02:32:45;100262.14;;;1.46;90.83
58967;BME280;44744;51.894;5.080;2023-01-19T02:33:45;100264.94;;;1.46;90.74
58967;BME280;44744;51.894;5.080;2023-01-19T02:34:46;100265.48;;;1.46;90.79
58967;BME280;44744;51.894;5.080;2023-01-19T02:35:47;100267.25;;;1.44;90.69
58967;BME280;44744;51.894;5.080;2023-01-19T02:36:57;100264.46;;;1.44;90.77
58967;BME280;44744;51.894;5.080;2023-01-19T02:38:00;100270.58;;;1.44;90.78
58967;BME280;44744;51.894;5.080;2023-01-19T02:39:03;100273.71;;;1.43;90.79
58967;BME280;44744;51.894;5.080;2023-01-19T02:40:11;100274.76;;;1.43;90.86
58967;BME280;44744;51.894;5.080;2023-01-19T02:41:16;100277.52;;;1.44;90.93
58967;BME280;44744;51.894;5.080;2023-01-19T02:42:36;100278.39;;;1.44;90.85
58967;BME280;44744;51.894;5.080;2023-01-19T02:43:40;100281.02;;;1.44;91.06
58967;BME280;44744;51.894;5.080;2023-01-19T02:44:44;100280.52;;;1.42;90.90
58967;BME280;44744;51.894;5.080;2023-01-19T02:45:45;100281.73;;;1.43;90.93
58967;BME280;44744;51.894;5.080;2023-01-19T02:46:46;100282.78;;;1.43;91.07
58967;BME280;44744;51.894;5.080;2023-01-19T02:47:50;100283.13;;;1.43;90.92
58967;BME280;44744;51.894;5.080;2023-01-19T02:48:51;100285.05;;;1.43;90.89
58967;BME280;44744;51.894;5.080;2023-01-19T02:49:58;100285.05;;;1.43;90.93
58967;BME280;44744;51.894;5.080;2023-01-19T02:51:01;100291.73;;;1.41;90.88
58967;BME280;44744;51.894;5.080;2023-01-19T02:52:03;100289.01;;;1.38;90.77
58967;BME280;44744;51.894;5.080;2023-01-19T02:53:11;100288.51;;;1.37;90.73
58967;BME280;44744;51.894;5.080;2023-01-19T02:55:47;100301.82;;;1.34;90.72
58967;BME280;44744;51.894;5.080;2023-01-19T02:58:40;100314.63;;;1.31;90.64
58967;BME280;44744;51.894;5.080;2023-01-19T03:00:06;100318.70;;;1.29;90.66
58967;BME280;44744;51.894;5.080;2023-01-19T03:01:37;100323.11;;;1.26;90.77
58967;BME280;44744;51.894;5.080;2023-01-19T03:02:53;100324.21;;;1.24;90.78
58967;BME280;44744;51.894;5.080;2023-01-19T03:04:04;100324.80;;;1.21;90.95
58967;BME280;44744;51.894;5.080;2023-01-19T03:07:40;100337.82;;;1.15;90.88
58967;BME280;44744;51.894;5.080;2023-01-19T03:08:52;100342.62;;;1.12;90.82
58967;BME280;44744;51.894;5.080;2023-01-19T03:12:20;100347.73;;;1.02;90.68
58967;BME280;44744;51.894;5.080;2023-01-19T03:14:48;100352.11;;;0.92;90.65
58967;BME280;44744;51.894;5.080;2023-01-19T03:15:53;100352.55;;;0.89;90.59
58967;BME280;44744;51.894;5.080;2023-01-19T03:16:58;100350.72;;;0.85;90.49
58967;BME280;44744;51.894;5.080;2023-01-19T03:18:01;100350.33;;;0.79;90.41
58967;BME280;44744;51.894;5.080;2023-01-19T03:20:23;100348.43;;;0.71;90.26
58967;BME280;44744;51.894;5.080;2023-01-19T03:21:26;100341.23;;;0.65;90.23
58967;BME280;44744;51.894;5.080;2023-01-19T03:22:28;100345.66;;;0.62;90.21
58967;BME280;44744;51.894;5.080;2023-01-19T03:23:30;100338.77;;;0.59;90.27
58967;BME280;44744;51.894;5.080;2023-01-19T03:24:35;100340.71;;;0.58;90.28
58967;BME280;44744;51.894;5.080;2023-01-19T03:25:40;100342.80;;;0.57;90.26
58967;BME280;44744;51.894;5.080;2023-01-19T03:26:50;100340.21;;;0.56;90.17
58967;BME280;44744;51.894;5.080;2023-01-19T03:27:53;100337.80;;;0.56;90.11
58967;BME280;44744;51.894;5.080;2023-01-19T03:28:55;100338.83;;;0.56;90.25
58967;BME280;44744;51.894;5.080;2023-01-19T03:30:00;100333.06;;;0.57;90.21
58967;BME280;44744;51.894;5.080;2023-01-19T03:31:10;100323.98;;;0.58;90.25
58967;BME280;44744;51.894;5.080;2023-01-19T03:32:15;100319.13;;;0.58;90.13
58967;BME280;44744;51.894;5.080;2023-01-19T03:33:25;100321.50;;;0.60;90.09
58967;BME280;44744;51.894;5.080;2023-01-19T03:34:28;100321.98;;;0.62;90.04
58967;BME280;44744;51.894;5.080;2023-01-19T03:35:30;100322.65;;;0.63;90.07
58967;BME280;44744;51.894;5.080;2023-01-19T03:36:41;100323.48;;;0.66;89.98
58967;BME280;44744;51.894;5.080;2023-01-19T03:37:44;100322.22;;;0.67;90.01
58967;BME280;44744;51.894;5.080;2023-01-19T03:38:46;100324.64;;;0.68;89.96
58967;BME280;44744;51.894;5.080;2023-01-19T03:39:47;100324.08;;;0.70;90.02
58967;BME280;44744;51.894;5.080;2023-01-19T03:40:48;100320.05;;;0.71;90.00
58967;BME280;44744;51.894;5.080;2023-01-19T03:41:54;100324.02;;;0.72;89.89
58967;BME280;44744;51.894;5.080;2023-01-19T03:42:58;100326.09;;;0.73;89.86
58967;BME280;44744;51.894;5.080;2023-01-19T03:43:59;100325.75;;;0.73;89.80
58967;BME280;44744;51.894;5.080;2023-01-19T03:45:00;100334.59;;;0.74;89.76
58967;BME280;44744;51.894;5.080;2023-01-19T03:46:02;100341.39;;;0.74;89.68
58967;BME280;44744;51.894;5.080;2023-01-19T03:47:05;100351.65;;;0.75;89.72
58967;BME280;44744;51.894;5.080;2023-01-19T03:48:06;100352.00;;;0.75;89.72
58967;BME280;44744;51.894;5.080;2023-01-19T03:49:07;100353.70;;;0.76;89.69
58967;BME280;44744;51.894;5.080;2023-01-19T03:50:13;100350.77;;;0.76;89.68
58967;BME280;44744;51.894;5.080;2023-01-19T03:51:19;100357.54;;;0.76;89.57
58967;BME280;44744;51.894;5.080;2023-01-19T03:52:31;100355.80;;;0.76;89.54
58967;BME280;44744;51.894;5.080;2023-01-19T03:53:31;100352.85;;;0.76;89.56
58967;BME280;44744;51.894;5.080;2023-01-19T03:54:32;100348.00;;;0.75;89.59
58967;BME280;44744;51.894;5.080;2023-01-19T03:55:34;100350.23;;;0.76;89.67
58967;BME280;44744;51.894;5.080;2023-01-19T03:56:35;100349.92;;;0.75;89.48
58967;BME280;44744;51.894;5.080;2023-01-19T03:57:36;100352.00;;;0.75;89.47
58967;BME280;44744;51.894;5.080;2023-01-19T03:58:36;100348.87;;;0.74;89.49
58967;BME280;44744;51.894;5.080;2023-01-19T03:59:36;100346.79;;;0.75;89.54
58967;BME280;44744;51.894;5.080;2023-01-19T04:00:37;100338.59;;;0.75;89.38
58967;BME280;44744;51.894;5.080;2023-01-19T04:01:38;100342.07;;;0.75;89.41
58967;BME280;44744;51.894;5.080;2023-01-19T04:02:38;100329.35;;;0.76;89.46
58967;BME280;44744;51.894;5.080;2023-01-19T04:03:38;100337.33;;;0.77;89.54
58967;BME280;44744;51.894;5.080;2023-01-19T04:04:38;100344.95;;;0.78;89.55
58967;BME280;44744;51.894;5.080;2023-01-19T04:05:39;100346.15;;;0.79;89.68
58967;BME280;44744;51.894;5.080;2023-01-19T04:06:40;100347.55;;;0.78;89.64
58967;BME280;44744;51.894;5.080;2023-01-19T04:07:40;100342.70;;;0.78;89.63
58967;BME280;44744;51.894;5.080;2023-01-19T04:08:41;100337.63;;;0.79;89.75
58967;BME280;44744;51.894;5.080;2023-01-19T04:09:41;100334.13;;;0.80;89.72
58967;BME280;44744;51.894;5.080;2023-01-19T04:10:41;100334.46;;;0.81;89.72
58967;BME280;44744;51.894;5.080;2023-01-19T04:11:42;100333.55;;;0.82;89.68
58967;BME280;44744;51.894;5.080;2023-01-19T04:12:42;100330.40;;;0.83;89.62
58967;BME280;44744;51.894;5.080;2023-01-19T04:13:42;100332.98;;;0.84;89.63
58967;BME280;44744;51.894;5.080;2023-01-19T04:14:42;100331.73;;;0.86;89.63
58967;BME280;44744;51.894;5.080;2023-01-19T04:15:43;100329.08;;;0.87;89.67
58967;BME280;44744;51.894;5.080;2023-01-19T04:16:43;100328.19;;;0.88;89.63
58967;BME280;44744;51.894;5.080;2023-01-19T04:17:43;100332.20;;;0.89;89.62
58967;BME280;44744;51.894;5.080;2023-01-19T04:18:44;100330.98;;;0.88;89.52
58967;BME280;44744;51.894;5.080;2023-01-19T04:19:44;100337.05;;;0.89;89.53
58967;BME280;44744;51.894;5.080;2023-01-19T04:20:44;100333.90;;;0.90;89.64
58967;BME280;44744;51.894;5.080;2023-01-19T04:21:47;100331.44;;;0.91;89.45
58967;BME280;44744;51.894;5.080;2023-01-19T04:22:48;100333.36;;;0.91;89.50
58967;BME280;44744;51.894;5.080;2023-01-19T04:23:48;100335.79;;;0.91;89.39
58967;BME280;44744;51.894;5.080;2023-01-19T04:24:48;100335.27;;;0.91;89.35
58967;BME280;44744;51.894;5.080;2023-01-19T04:25:49;100332.84;;;0.90;89.45
58967;BME280;44744;51.894;5.080;2023-01-19T04:26:50;100335.98;;;0.91;89.29
58967;BME280;44744;51.894;5.080;2023-01-19T04:27:52;100332.65;;;0.91;89.31
58967;BME280;44744;51.894;5.080;2023-01-19T04:28:52;100333.68;;;0.92;89.25
58967;BME280;44744;51.894;5.080;2023-01-19T04:29:52;100333.83;;;0.92;89.32
58967;BME280;44744;51.894;5.080;2023-01-19T04:30:53;100332.98;;;0.92;89.28
58967;BME280;44744;51.894;5.080;2023-01-19T04:31:56;100329.69;;;0.91;89.35
58967;BME280;44744;51.894;5.080;2023-01-19T04:33:00;100332.83;;;0.91;89.25
58967;BME280;44744;51.894;5.080;2023-01-19T04:34:03;100329.85;;;0.91;89.33
58967;BME280;44744;51.894;5.080;2023-01-19T04:35:03;100329.86;;;0.91;89.34
58967;BME280;44744;51.894;5.080;2023-01-19T04:36:04;100328.80;;;0.91;89.31
58967;BME280;44744;51.894;5.080;2023-01-19T04:37:05;100326.88;;;0.92;89.37
58967;BME280;44744;51.894;5.080;2023-01-19T04:38:05;100329.45;;;0.94;89.35
58967;BME280;44744;51.894;5.080;2023-01-19T04:39:05;100327.73;;;0.94;89.30
58967;BME280;44744;51.894;5.080;2023-01-19T04:40:07;100327.88;;;0.95;89.24
58967;BME280;44744;51.894;5.080;2023-01-19T04:41:07;100329.08;;;0.95;89.35
58967;BME280;44744;51.894;5.080;2023-01-19T04:42:07;100330.42;;;0.97;89.33
58967;BME280;44744;51.894;5.080;2023-01-19T04:43:08;100331.46;;;0.97;89.33
58967;BME280;44744;51.894;5.080;2023-01-19T04:44:08;100332.50;;;0.97;89.25
58967;BME280;44744;51.894;5.080;2023-01-19T04:45:09;100328.15;;;0.97;89.26
58967;BME280;44744;51.894;5.080;2023-01-19T04:46:09;100328.65;;;0.98;89.33
58967;BME280;44744;51.894;5.080;2023-01-19T04:47:09;100324.48;;;0.98;89.24
58967;BME280;44744;51.894;5.080;2023-01-19T04:48:11;100328.48;;;0.98;89.28
58967;BME280;44744;51.894;5.080;2023-01-19T04:49:11;100328.29;;;0.99;89.27
58967;BME280;44744;51.894;5.080;2023-01-19T04:50:12;100332.98;;;0.99;89.19
58967;BME280;44744;51.894;5.080;2023-01-19T04:51:15;100328.98;;;0.99;89.24
58967;BME280;44744;51.894;5.080;2023-01-19T04:52:16;100324.10;;;0.99;89.18
58967;BME280;44744;51.894;5.080;2023-01-19T04:53:16;100325.33;;;0.99;89.11
58967;BME280;44744;51.894;5.080;2023-01-19T04:54:17;100325.33;;;0.99;89.20
58967;BME280;44744;51.894;5.080;2023-01-19T04:55:17;100329.48;;;1.00;89.24
58967;BME280;44744;51.894;5.080;2023-01-19T04:56:17;100325.67;;;0.99;89.10
58967;BME280;44744;51.894;5.080;2023-01-19T04:57:18;100328.80;;;0.99;89.21
58967;BME280;44744;51.894;5.080;2023-01-19T04:58:18;100325.83;;;1.00;89.07
58967;BME280;44744;51.894;5.080;2023-01-19T04:59:18;100328.63;;;0.99;89.17
58967;BME280;44744;51.894;5.080;2023-01-19T05:00:19;100332.65;;;0.99;89.12
58967;BME280;44744;51.894;5.080;2023-01-19T05:01:37;100330.20;;;0.99;89.19
58967;BME280;44744;51.894;5.080;2023-01-19T05:02:37;100330.75;;;0.98;89.09
58967;BME280;44744;51.894;5.080;2023-01-19T05:03:38;100332.49;;;0.98;89.14
58967;BME280;44744;51.894;5.080;2023-01-19T05:04:38;100330.42;;;0.96;89.00
58967;BME280;44744;51.894;5.080;2023-01-19T05:05:38;100333.19;;;0.97;89.08
58967;BME280;44744;51.894;5.080;2023-01-19T05:06:38;100333.91;;;0.97;89.04
58967;BME280;44744;51.894;5.080;2023-01-19T05:07:39;100338.60;;;0.97;89.10
58967;BME280;44744;51.894;5.080;2023-01-19T05:08:39;100335.65;;;0.97;89.13
58967;BME280;44744;51.894;5.080;2023-01-19T05:09:40;100335.10;;;0.98;89.13
58967;BME280;44744;51.894;5.080;2023-01-19T05:10:40;100331.80;;;0.97;89.08
58967;BME280;44744;51.894;5.080;2023-01-19T05:11:40;100333.35;;;0.98;89.14
58967;BME280;44744;51.894;5.080;2023-01-19T05:12:41;100334.55;;;0.99;89.12
58967;BME280;44744;51.894;5.080;2023-01-19T05:13:41;100336.29;;;0.99;89.07
58967;BME280;44744;51.894;5.080;2023-01-19T05:14:41;100333.33;;;1.00;89.10
58967;BME280;44744;51.894;5.080;2023-01-19T05:15:42;100338.00;;;1.01;89.06
58967;BME280;44744;51.894;5.080;2023-01-19T05:16:42;100341.11;;;1.01;89.12
58967;BME280;44744;51.894;5.080;2023-01-19T05:17:42;100341.79;;;1.02;89.13
58967;BME280;44744;51.894;5.080;2023-01-19T05:18:43;100344.55;;;1.04;89.23
58967;BME280;44744;51.894;5.080;2023-01-19T05:19:43;100350.45;;;1.05;89.10
58967;BME280;44744;51.894;5.080;2023-01-19T05:20:43;100348.86;;;1.05;89.23
58967;BME280;44744;51.894;5.080;2023-01-19T05:21:44;100351.44;;;1.07;89.08
58967;BME280;44744;51.894;5.080;2023-01-19T05:22:48;100352.83;;;1.07;89.02
58967;BME280;44744;51.894;5.080;2023-01-19T05:23:48;100357.34;;;1.08;88.98
58967;BME280;44744;51.894;5.080;2023-01-19T05:24:48;100353.31;;;1.09;89.05
58967;BME280;44744;51.894;5.080;2023-01-19T05:25:49;100352.96;;;1.09;88.90
58967;BME280;44744;51.894;5.080;2023-01-19T05:26:49;100353.82;;;1.09;89.06
58967;BME280;44744;51.894;5.080;2023-01-19T05:27:49;100353.13;;;1.09;88.95
58967;BME280;44744;51.894;5.080;2023-01-19T05:28:49;100353.27;;;1.10;89.04
58967;BME280;44744;51.894;5.080;2023-01-19T05:29:50;100354.48;;;1.11;88.95
58967;BME280;44744;51.894;5.080;2023-01-19T05:30:50;100353.95;;;1.11;88.96
58967;BME280;44744;51.894;5.080;2023-01-19T05:31:50;100352.88;;;1.12;88.99
58967;BME280;44744;51.894;5.080;2023-01-19T05:32:51;100354.42;;;1.14;89.03
58967;BME280;44744;51.894;5.080;2023-01-19T05:33:51;100353.90;;;1.13;88.92
58967;BME280;44744;51.894;5.080;2023-01-19T05:34:51;100357.36;;;1.14;88.89
58967;BME280;44744;51.894;5.080;2023-01-19T05:35:52;100354.23;;;1.14;88.93
58967;BME280;44744;51.894;5.080;2023-01-19T05:36:53;100358.93;;;1.14;88.88
58967;BME280;44744;51.894;5.080;2023-01-19T05:37:53;100359.80;;;1.14;88.98
58967;BME280;44744;51.894;5.080;2023-01-19T05:38:53;100359.41;;;1.16;88.96
58967;BME280;44744;51.894;5.080;2023-01-19T05:39:54;100362.02;;;1.15;88.86
58967;BME280;44744;51.894;5.080;2023-01-19T05:40:57;100361.14;;;1.16;88.96
58967;BME280;44744;51.894;5.080;2023-01-19T05:41:57;100362.18;;;1.17;88.89
58967;BME280;44744;51.894;5.080;2023-01-19T05:42:58;100362.70;;;1.16;88.84
58967;BME280;44744;51.894;5.080;2023-01-19T05:43:58;100360.77;;;1.17;88.97
58967;BME280;44744;51.894;5.080;2023-01-19T05:44:58;100365.95;;;1.19;88.98
58967;BME280;44744;51.894;5.080;2023-01-19T05:45:59;100364.20;;;1.19;88.92
58967;BME280;44744;51.894;5.080;2023-01-19T05:46:59;100365.38;;;1.21;88.88
58967;BME280;44744;51.894;5.080;2023-01-19T05:48:00;100364.85;;;1.22;88.85
58967;BME280;44744;51.894;5.080;2023-01-19T05:49:00;100371.27;;;1.22;88.97
58967;BME280;44744;51.894;5.080;2023-01-19T05:50:00;100369.02;;;1.22;88.90
58967;BME280;44744;51.894;5.080;2023-01-19T05:51:01;100368.97;;;1.24;88.95
58967;BME280;44744;51.894;5.080;2023-01-19T05:52:01;100371.40;;;1.25;88.88
58967;BME280;44744;51.894;5.080;2023-01-19T05:53:23;100371.02;;;1.26;88.86
58967;BME280;44744;51.894;5.080;2023-01-19T05:54:23;100372.05;;;1.26;89.00
58967;BME280;44744;51.894;5.080;2023-01-19T05:55:23;100375.00;;;1.27;88.90
58967;BME280;44744;51.894;5.080;2023-01-19T05:56:24;100380.71;;;1.28;88.86
58967;BME280;44744;51.894;5.080;2023-01-19T05:57:24;100377.72;;;1.30;88.85
58967;BME280;44744;51.894;5.080;2023-01-19T05:58:24;100380.64;;;1.31;88.89
58967;BME280;44744;51.894;5.080;2023-01-19T05:59:25;100381.63;;;1.33;88.95
58967;BME280;44744;51.894;5.080;2023-01-19T06:00:25;100381.27;;;1.34;89.12
58967;BME280;44744;51.894;5.080;2023-01-19T06:01:26;100380.01;;;1.36;88.94
58967;BME280;44744;51.894;5.080;2023-01-19T06:02:26;100380.16;;;1.37;89.00
58967;BME280;44744;51.894;5.080;2023-01-19T06:03:26;100377.86;;;1.38;88.92
58967;BME280;44744;51.894;5.080;2023-01-19T06:04:27;100381.83;;;1.41;89.04